createdAt,value
2023-05-09T00:00:00.868Z,99720.29
2023-05-09T00:10:05.583Z,99713.75
2023-05-09T00:20:10.251Z,99708.90
2023-05-09T00:30:13.441Z,99700.30
2023-05-09T00:40:17.599Z,99692.52
2023-05-09T00:50:24.964Z,99690.44
2023-05-09T01:00:28.861Z,99687.59
2023-05-09T01:10:37.733Z,99683.51
2023-05-09T01:20:44.161Z,99672.30
2023-05-09T01:30:47.545Z,99666.00
2023-05-09T01:40:54.700Z,99665.84
2023-05-09T01:51:00.395Z,99672.10
2023-05-09T02:01:04.208Z,99666.19
2023-05-09T02:11:07.585Z,99656.45
2023-05-09T02:21:11.566Z,99649.94
2023-05-09T02:31:17.902Z,99650.48
2023-05-09T02:41:22.216Z,99653.33
2023-05-09T02:51:26.070Z,99647.84
2023-05-09T03:01:30.001Z,99645.05
2023-05-09T03:11:36.131Z,99655.63
2023-05-09T03:21:39.921Z,99643.19
2023-05-09T03:31:43.641Z,99637.69
2023-05-09T03:41:48.348Z,99627.81
2023-05-09T03:51:52.017Z,99626.77
2023-05-09T04:01:55.828Z,99625.80
2023-05-09T04:12:02.996Z,99630.45
2023-05-09T04:22:06.685Z,99633.65
2023-05-09T04:32:11.444Z,99629.77
2023-05-09T04:42:15.198Z,99632.38
2023-05-09T04:52:22.123Z,99627.92
2023-05-09T05:02:26.081Z,99628.48
2023-05-09T05:12:30.469Z,99622.94
2023-05-09T05:22:38.260Z,99628.98
2023-05-09T05:32:43.045Z,99623.18
2023-05-09T05:52:50.509Z,99622.23
2023-05-09T06:02:54.205Z,99613.87
2023-05-09T06:12:57.968Z,99606.70
2023-05-09T06:23:01.627Z,99606.80
2023-05-09T06:33:05.638Z,99600.38
2023-05-09T06:43:09.827Z,99605.33
2023-05-09T06:53:13.638Z,99598.60
2023-05-09T07:03:17.374Z,99595.52
2023-05-09T07:13:21.296Z,99587.91
2023-05-09T07:23:26.600Z,99577.34
2023-05-09T07:33:29.778Z,99563.79
2023-05-09T07:43:33.582Z,99555.94
2023-05-09T07:53:37.236Z,99550.17
2023-05-09T08:03:41.400Z,99537.57
2023-05-09T08:25:40.300Z,99524.70
2023-05-09T08:35:44.251Z,99523.96
2023-05-09T08:45:51.188Z,99519.95
2023-05-09T08:55:58.814Z,99515.02
2023-05-09T09:06:03.018Z,99484.83
2023-05-09T09:16:09.590Z,99485.59
2023-05-09T09:26:13.794Z,99495.61
2023-05-09T09:36:26.470Z,99480.27
2023-05-09T09:46:31.547Z,99476.57
2023-05-09T09:56:41.199Z,99479.52
2023-05-09T10:06:52.560Z,99464.54
2023-05-09T10:16:57.200Z,99449.83
2023-05-09T10:27:06.532Z,99430.53
2023-05-09T10:37:11.203Z,99418.98
2023-05-09T10:47:15.865Z,99416.07
2023-05-09T10:57:19.621Z,99407.58
2023-05-09T11:07:27.757Z,99392.69
2023-05-09T11:17:38.060Z,99388.57
2023-05-09T11:27:41.986Z,99368.66
2023-05-09T11:37:48.350Z,99354.67
2023-05-09T11:47:53.664Z,99346.55
2023-05-09T11:58:01.051Z,99333.55
2023-05-09T12:08:04.993Z,99322.80
2023-05-09T12:28:13.832Z,99307.02
2023-05-09T12:38:22.033Z,99296.99
2023-05-09T12:48:26.264Z,99291.36
2023-05-09T12:58:30.126Z,99276.20
2023-05-09T13:08:34.115Z,99263.63
2023-05-09T13:18:37.946Z,99244.11
2023-05-09T13:28:41.548Z,99238.88
2023-05-09T13:38:45.727Z,99223.44
2023-05-09T13:48:49.542Z,99213.49
2023-05-09T13:58:53.220Z,99204.13
2023-05-09T14:08:57.732Z,99193.67
2023-05-09T14:19:01.661Z,99187.27
2023-05-09T14:29:06.662Z,99182.86
2023-05-09T14:39:10.457Z,99172.09
2023-05-09T14:49:38.337Z,99166.73
2023-05-09T14:59:42.445Z,99157.76
2023-05-09T15:09:46.674Z,99148.81
2023-05-09T15:19:50.569Z,99140.48
2023-05-09T15:29:54.772Z,99126.26
2023-05-09T15:40:03.775Z,99109.69
2023-05-09T15:50:09.726Z,99101.59
2023-05-09T16:00:15.969Z,99098.39
2023-05-09T16:10:20.425Z,99087.63
2023-05-09T16:20:24.581Z,99073.84
2023-05-09T16:30:27.090Z,99070.09
2023-05-09T16:40:31.019Z,99065.67
2023-05-09T16:50:35.524Z,99060.02
2023-05-09T17:00:39.163Z,99048.38
2023-05-09T17:11:08.264Z,99033.17
2023-05-09T17:21:12.731Z,99021.30
2023-05-09T17:31:16.486Z,99012.65
2023-05-09T17:41:20.355Z,99019.45
2023-05-09T17:51:23.996Z,99016.88
2023-05-09T18:01:27.640Z,99010.02
2023-05-09T18:11:31.423Z,99011.08
2023-05-09T18:21:34.939Z,99007.44
2023-05-09T18:31:42.407Z,99004.17
2023-05-09T18:41:55.488Z,99010.84
2023-05-09T18:51:59.645Z,99011.44
2023-05-09T19:02:03.749Z,99009.77
2023-05-09T19:12:09.098Z,99008.36
2023-05-09T19:22:16.216Z,99005.30
2023-05-09T19:32:19.410Z,99001.30
2023-05-09T19:42:22.672Z,99001.60
2023-05-09T19:52:26.096Z,98989.48
2023-05-09T20:02:33.674Z,98991.46
2023-05-09T20:12:37.481Z,98985.59
2023-05-09T20:22:41.196Z,98982.52
2023-05-09T20:32:45.276Z,98978.57
2023-05-09T20:42:49.369Z,98977.63
2023-05-09T20:52:53.615Z,98970.92
2023-05-09T21:02:58.866Z,98966.38
2023-05-09T21:13:03.963Z,98961.70
2023-05-09T21:23:11.404Z,98957.64
2023-05-09T21:33:15.090Z,98945.62
2023-05-09T21:43:19.656Z,98946.36
2023-05-09T21:53:23.359Z,98946.64
2023-05-09T22:03:28.215Z,98944.21
2023-05-09T22:14:00.422Z,98944.51
2023-05-09T22:24:04.848Z,98940.94
2023-05-09T22:34:08.483Z,98934.68
2023-05-09T22:44:12.159Z,98926.31
2023-05-09T22:54:21.386Z,98911.05
2023-05-09T23:04:25.171Z,98902.60
2023-05-09T23:14:29.032Z,98898.41
2023-05-09T23:24:33.595Z,98892.92
2023-05-09T23:34:37.345Z,98891.15
2023-05-09T23:44:41.660Z,98889.84
2023-05-09T23:54:46.004Z,98884.34
